Time;durP1;ratioP1;P1;durP2;ratioP2;P2;SDS_P1;SDS_P2;PMS_P1;PMS_P2;Temp;Humidity;BMP_temperature;BMP_pressure;BME280_temperature;BME280_humidity;BME280_pressure;Samples;Min_cycle;Max_cycle;Signal;HPM_P1;HPM_P2
2023/06/18 00:01:13;;;;;;;38.33;2.70;;;;;;;24.15;58.33;99244.81;7313539;19;128879;-38
2023/06/18 00:03:39;;;;;;;30.85;2.38;;;;;;;24.17;58.16;99236.75;7313847;19;129333;-37
2023/06/18 00:06:05;;;;;;;23.87;1.87;;;;;;;24.16;58.00;99246.44;7313354;19;129672;-40
2023/06/18 00:08:30;;;;;;;39.17;2.80;;;;;;;24.15;58.60;99244.81;7313361;19;129751;-36
2023/06/18 00:10:55;;;;;;;31.88;2.33;;;;;;;24.14;57.89;99243.19;7312721;19;130000;-40
2023/06/18 00:13:21;;;;;;;20.90;1.60;;;;;;;24.14;57.88;99243.19;7314275;19;129443;-32
2023/06/18 00:15:46;;;;;;;32.40;2.37;;;;;;;24.15;58.26;99239.56;7312171;19;129583;-43
2023/06/18 00:18:11;;;;;;;29.43;2.20;;;;;;;24.15;58.14;99249.22;7313189;19;129257;-36
2023/06/18 00:20:37;;;;;;;42.10;2.90;;;;;;;24.13;58.05;99238.09;7313113;19;129101;-40
2023/06/18 00:23:02;;;;;;;25.27;2.00;;;;;;;24.19;57.93;99248.75;7313349;19;129441;-40
2023/06/18 00:25:28;;;;;;;13.57;1.50;;;;;;;24.05;57.61;99223.13;7311242;19;129234;-37
2023/06/18 00:27:55;;;;;;;35.70;2.60;;;;;;;24.15;57.90;99251.84;7311119;19;129003;-34
2023/06/18 00:30:21;;;;;;;28.15;2.42;;;;;;;24.16;57.42;99245.63;7310828;19;128905;-39
2023/06/18 00:32:46;;;;;;;41.97;2.70;;;;;;;24.18;58.34;99248.91;7312308;19;129687;-34
2023/06/18 00:35:12;;;;;;;22.55;1.80;;;;;;;24.17;57.88;99250.72;7313125;19;129246;-39
2023/06/18 00:37:39;;;;;;;42.67;3.00;;;;;;;24.15;58.19;99250.06;7310545;19;128977;-41
2023/06/18 00:40:05;;;;;;;23.88;1.95;;;;;;;24.13;58.03;99251.22;7311687;19;129047;-34
2023/06/18 00:42:30;;;;;;;25.80;2.00;;;;;;;24.15;57.68;99244.81;7312668;19;130662;-39
2023/06/18 00:44:57;;;;;;;30.65;2.10;;;;;;;24.14;58.33;99237.91;7310879;19;129364;-35
2023/06/18 00:47:23;;;;;;;40.50;2.75;;;;;;;24.14;57.65;99243.19;7310998;19;128844;-39
2023/06/18 00:49:50;;;;;;;28.95;2.28;;;;;;;24.16;57.54;99245.63;7313701;19;129173;-39
2023/06/18 00:52:16;;;;;;;25.13;1.95;;;;;;;24.13;57.68;99241.50;7312619;19;130166;-41
2023/06/18 00:54:44;;;;;;;17.40;1.58;;;;;;;24.13;57.88;99243.34;7313033;19;129162;-41
2023/06/18 00:57:13;;;;;;;41.83;3.00;;;;;;;24.12;58.51;99239.06;7311912;19;129619;-36
2023/06/18 00:59:42;;;;;;;23.35;1.88;;;;;;;24.16;57.52;99246.44;7312603;19;129512;-38
2023/06/18 01:02:08;;;;;;;25.00;2.25;;;;;;;24.13;58.17;99257.28;7310528;19;129007;-32
2023/06/18 01:04:36;;;;;;;22.35;1.80;;;;;;;24.17;58.24;99242.00;7311223;19;129667;-42
2023/06/18 01:07:03;;;;;;;28.67;2.22;;;;;;;24.15;57.78;99244.81;7310320;19;129017;-34
2023/06/18 01:09:29;;;;;;;25.98;1.85;;;;;;;24.13;58.05;99241.50;7312673;19;130503;-37
2023/06/18 01:11:55;;;;;;;21.97;1.87;;;;;;;24.17;57.58;99242.84;7312349;19;129237;-36
2023/06/18 01:14:31;;;;;;;24.08;1.98;;;;;;;24.17;57.70;99237.59;7311970;19;130337;-41
2023/06/18 01:16:59;;;;;;;34.35;2.45;;;;;;;24.18;57.68;99244.47;7308973;19;128917;-40
2023/06/18 01:19:45;;;;;;;39.20;2.85;;;;;;;24.18;58.26;99236.59;7311782;19;129193;-38
2023/06/18 01:22:26;;;;;;;28.48;2.10;;;;;;;24.16;57.93;99245.63;7311273;19;129444;-33
2023/06/18 01:24:57;;;;;;;38.97;2.83;;;;;;;24.15;58.11;99242.19;7310428;19;129628;-36
2023/06/18 01:27:25;;;;;;;23.30;1.92;;;;;;;24.16;57.42;99246.44;7310035;19;129006;-36
2023/06/18 01:29:51;;;;;;;29.63;2.45;;;;;;;24.16;58.41;99235.94;7311291;19;129027;-33
2023/06/18 01:32:17;;;;;;;33.97;2.38;;;;;;;24.15;57.83;99236.91;7310903;19;129132;-36
2023/06/18 01:34:43;;;;;;;35.57;2.50;;;;;;;24.16;57.62;99238.56;7311723;19;129542;-36
2023/06/18 01:37:29;;;;;;;22.13;1.70;;;;;;;24.17;58.11;99237.59;7310627;19;129188;-33
2023/06/18 01:40:24;;;;;;;16.40;1.60;;;;;;;24.16;57.88;99233.28;7312121;19;128793;-36
2023/06/18 01:43:04;;;;;;;24.58;2.05;;;;;;;24.17;58.50;99232.34;7317318;19;129119;-38
2023/06/18 01:45:39;;;;;;;23.65;1.90;;;;;;;24.15;57.88;99234.28;7316450;19;129151;-39
2023/06/18 01:48:07;;;;;;;30.60;2.50;;;;;;;24.17;57.67;99236.75;7317839;19;129246;-39
2023/06/18 01:50:35;;;;;;;33.92;2.95;;;;;;;24.16;58.27;99235.13;7317802;19;130144;-32
2023/06/18 01:53:04;;;;;;;34.45;2.30;;;;;;;24.17;57.79;99245.47;7318386;19;129643;-38
2023/06/18 01:55:29;;;;;;;21.55;1.90;;;;;;;24.18;57.90;99248.91;7318949;19;129095;-39
2023/06/18 01:57:56;;;;;;;25.87;2.00;;;;;;;24.15;57.70;99243.97;7315726;19;129087;-36
2023/06/18 02:00:21;;;;;;;26.85;2.25;;;;;;;24.06;57.39;99230.03;7316499;19;129082;-35
2023/06/18 02:02:49;;;;;;;47.23;3.20;;;;;;;24.14;57.96;99258.94;7317516;19;129342;-37
2023/06/18 02:05:15;;;;;;;26.58;2.17;;;;;;;24.15;58.51;99254.47;7317076;19;129597;-35
2023/06/18 02:07:40;;;;;;;25.10;2.10;;;;;;;24.17;58.31;99263.84;7315248;19;128869;-40
2023/06/18 02:10:06;;;;;;;25.47;1.90;;;;;;;24.18;58.08;99257.59;7316951;19;128737;-37
2023/06/18 02:12:31;;;;;;;39.90;2.67;;;;;;;24.17;58.02;99258.59;7316720;19;129724;-31
2023/06/18 02:14:57;;;;;;;26.43;2.27;;;;;;;24.18;57.76;99252.34;7317201;19;129276;-38
2023/06/18 02:17:22;;;;;;;28.63;2.23;;;;;;;24.16;58.21;99256.94;7315037;19;128920;-40
2023/06/18 02:19:47;;;;;;;36.42;2.55;;;;;;;24.16;58.06;99262.19;7316466;19;128975;-37
2023/06/18 02:22:13;;;;;;;25.50;2.00;;;;;;;24.14;57.97;99255.47;7315893;19;129254;-41
2023/06/18 02:24:38;;;;;;;23.63;1.97;;;;;;;24.09;57.60;99237.59;7316536;19;129341;-34
2023/06/18 02:27:04;;;;;;;23.60;1.83;;;;;;;24.16;57.87;99256.94;7315077;19;129083;-37
2023/06/18 02:29:29;;;;;;;30.47;2.20;;;;;;;24.20;57.86;99254.81;7316426;19;128912;-38
2023/06/18 02:31:55;;;;;;;35.23;2.50;;;;;;;24.18;57.99;99244.47;7315579;19;130906;-44
2023/06/18 02:34:20;;;;;;;25.42;2.15;;;;;;;24.19;57.58;99250.56;7317484;19;130305;-35
2023/06/18 02:36:46;;;;;;;24.90;2.10;;;;;;;24.18;58.42;99254.97;7314105;19;129038;-38
2023/06/18 02:39:12;;;;;;;31.90;2.22;;;;;;;24.09;57.60;99242.84;7316106;19;129521;-38
2023/06/18 02:41:37;;;;;;;104.22;6.65;;;;;;;24.13;58.24;99256.47;7314722;19;129686;-37
2023/06/18 02:44:04;;;;;;;9.40;1.23;;;;;;;24.17;57.91;99263.84;7316506;19;129287;-38
2023/06/18 02:46:29;;;;;;;23.70;1.77;;;;;;;24.14;57.92;99264.19;7314958;19;129044;-40
2023/06/18 02:48:55;;;;;;;50.47;3.50;;;;;;;24.16;57.67;99267.44;7314895;19;129512;-34
2023/06/18 02:51:20;;;;;;;17.23;1.53;;;;;;;24.17;58.37;99269.09;7315962;19;129188;-39
2023/06/18 02:53:45;;;;;;;23.50;1.77;;;;;;;24.15;57.86;99273.69;7312965;19;129263;-35
2023/06/18 02:56:11;;;;;;;31.90;2.25;;;;;;;24.12;58.15;99274.03;7314451;19;129182;-36
2023/06/18 02:58:36;;;;;;;31.37;2.37;;;;;;;24.15;58.01;99271.06;7313866;19;129096;-41
2023/06/18 03:01:04;;;;;;;29.60;2.20;;;;;;;24.15;57.61;99278.94;7315214;19;129445;-36
2023/06/18 03:03:30;;;;;;;33.47;2.40;;;;;;;24.15;58.05;99276.31;7314366;19;129174;-37
2023/06/18 03:05:55;;;;;;;25.07;1.87;;;;;;;24.07;57.58;99259.72;7313795;19;129283;-37
2023/06/18 03:08:21;;;;;;;39.53;2.70;;;;;;;24.14;57.73;99269.44;7314439;19;130959;-36
2023/06/18 03:10:46;;;;;;;20.33;1.60;;;;;;;24.14;57.83;99269.44;7315080;19;128990;-36
2023/06/18 03:13:12;;;;;;;19.90;1.67;;;;;;;24.16;58.42;99269.28;7314294;19;129466;-38
2023/06/18 03:15:38;;;;;;;36.37;3.27;;;;;;;24.17;57.51;99268.28;7315356;19;128999;-35
2023/06/18 03:18:04;;;;;;;116.30;7.23;;;;;;;24.16;58.37;99272.69;7313759;19;129001;-34
2023/06/18 03:20:30;;;;;;;57.63;4.23;;;;;;;24.17;58.03;99274.38;7315144;19;129361;-40
2023/06/18 03:22:56;;;;;;;36.97;2.78;;;;;;;24.10;57.84;99268.13;7315054;19;129554;-35
2023/06/18 03:25:21;;;;;;;27.85;2.22;;;;;;;24.16;58.10;99277.16;7313205;19;128783;-38
2023/06/18 03:27:48;;;;;;;41.05;2.75;;;;;;;24.13;58.17;99283.53;7312983;19;129160;-37
2023/06/18 03:30:13;;;;;;;33.30;2.30;;;;;;;24.15;57.82;99286.00;7314565;19;129488;-36
2023/06/18 03:32:39;;;;;;;13.70;1.40;;;;;;;24.18;57.34;99286.50;7314370;19;129245;-37
2023/06/18 03:35:05;;;;;;;59.27;3.93;;;;;;;24.17;58.12;99284.03;7312893;19;129088;-40
2023/06/18 03:37:30;;;;;;;29.37;2.20;;;;;;;24.18;57.94;99286.50;7314017;19;129197;-38
2023/06/18 03:39:56;;;;;;;26.10;2.15;;;;;;;24.18;58.01;99281.25;7315122;19;129015;-39
2023/06/18 03:42:23;;;;;;;10.48;1.08;;;;;;;24.17;58.37;99287.50;7314144;19;130548;-38
2023/06/18 03:44:48;;;;;;;84.13;5.23;;;;;;;24.18;58.33;99291.75;7311795;19;129230;-40
2023/06/18 03:47:13;;;;;;;30.13;2.15;;;;;;;24.18;58.35;99298.84;7313413;19;128990;-39
2023/06/18 03:49:39;;;;;;;35.73;2.27;;;;;;;24.06;58.32;99279.94;7314944;19;129625;-38
2023/06/18 03:52:04;;;;;;;3.42;0.73;;;;;;;24.18;58.28;99297.00;7314086;19;129638;-39
2023/06/18 03:54:31;;;;;;;41.23;2.57;;;;;;;24.07;57.88;99286.81;7313777;19;129314;-38
2023/06/18 03:56:57;;;;;;;21.83;1.60;;;;;;;24.15;58.42;99294.72;7312167;19;129351;-39
2023/06/18 03:59:23;;;;;;;21.37;1.57;;;;;;;24.16;57.60;99296.34;7313336;19;129832;-36
2023/06/18 04:01:48;;;;;;;29.77;2.40;;;;;;;24.18;58.35;99306.72;7311568;19;129657;-38
2023/06/18 04:04:14;;;;;;;53.15;3.47;;;;;;;24.17;58.58;99303.25;7310063;19;128829;-35
2023/06/18 04:06:39;;;;;;;23.93;1.93;;;;;;;24.15;58.09;99302.59;7311952;19;129181;-39
2023/06/18 04:09:05;;;;;;;23.08;1.85;;;;;;;24.17;58.11;99305.06;7313992;19;130134;-40
2023/06/18 04:11:30;;;;;;;23.48;1.73;;;;;;;24.15;57.69;99307.84;7311714;19;129205;-36
2023/06/18 04:13:55;;;;;;;47.90;3.13;;;;;;;24.17;57.79;99310.31;7313528;19;128808;-38
2023/06/18 04:16:21;;;;;;;26.60;2.17;;;;;;;24.05;57.72;99286.16;7312462;19;128760;-37
2023/06/18 04:18:46;;;;;;;17.67;1.67;;;;;;;24.16;57.98;99298.16;7312164;19;129353;-37
2023/06/18 04:21:11;;;;;;;35.08;2.60;;;;;;;24.14;57.95;99290.44;7312311;19;129413;-39
2023/06/18 04:23:37;;;;;;;38.73;2.63;;;;;;;24.15;57.88;99293.88;7313360;19;129344;-37
2023/06/18 04:26:02;;;;;;;26.30;2.03;;;;;;;24.16;57.68;99290.28;7309984;19;129187;-39
2023/06/18 04:28:27;;;;;;;8.50;1.07;;;;;;;24.14;57.74;99290.44;7313085;19;128952;-40
2023/06/18 04:30:53;;;;;;;66.30;3.97;;;;;;;24.17;57.92;99289.28;7312565;19;129500;-37
2023/06/18 04:33:18;;;;;;;28.75;2.00;;;;;;;24.14;58.12;99300.13;7313438;19;129231;-35
2023/06/18 04:35:45;;;;;;;27.77;2.03;;;;;;;24.06;57.67;99285.19;7312403;19;128967;-39
2023/06/18 04:38:11;;;;;;;37.47;3.05;;;;;;;24.19;57.78;99297.84;7312072;19;129430;-38
2023/06/18 04:40:36;;;;;;;43.20;2.97;;;;;;;24.16;58.34;99300.78;7311186;19;129396;-39
2023/06/18 04:43:02;;;;;;;23.85;1.88;;;;;;;24.15;58.01;99307.84;7313966;19;129335;-40
2023/06/18 04:45:27;;;;;;;23.07;1.70;;;;;;;24.15;57.84;99302.59;7311634;19;128731;-39
2023/06/18 04:47:53;;;;;;;19.75;1.65;;;;;;;24.15;58.35;99302.59;7309803;19;130486;-38
2023/06/18 04:50:18;;;;;;;46.80;3.37;;;;;;;24.14;57.99;99305.38;7311732;19;129786;-38
2023/06/18 04:52:44;;;;;;;27.10;2.10;;;;;;;24.12;58.29;99302.09;7313004;19;128882;-38
2023/06/18 04:55:10;;;;;;;27.93;2.17;;;;;;;24.14;58.05;99308.84;7312281;19;129388;-37
2023/06/18 04:57:35;;;;;;;24.97;2.00;;;;;;;24.14;57.89;99308.84;7310213;19;130421;-38
2023/06/18 05:00:04;;;;;;;40.47;2.73;;;;;;;24.15;57.71;99310.47;7311929;19;129498;-39
2023/06/18 05:02:29;;;;;;;24.17;1.80;;;;;;;24.15;57.77;99312.25;7312927;19;128936;-40
2023/06/18 05:04:55;;;;;;;21.93;1.83;;;;;;;24.16;57.84;99317.34;7311638;19;128981;-40
2023/06/18 05:07:20;;;;;;;31.87;2.43;;;;;;;24.14;58.30;99316.72;7309757;19;129024;-35
2023/06/18 05:09:45;;;;;;;40.10;2.80;;;;;;;24.17;57.87;99318.19;7311647;19;129632;-34
2023/06/18 05:12:11;;;;;;;21.70;1.80;;;;;;;24.14;57.78;99319.34;7312333;19;129440;-43
2023/06/18 05:14:36;;;;;;;19.27;1.63;;;;;;;24.15;58.17;99315.72;7311997;19;129290;-38
2023/06/18 05:17:02;;;;;;;34.63;2.47;;;;;;;24.15;58.28;99320.16;7315054;19;129412;-41
2023/06/18 05:19:27;;;;;;;34.60;2.50;;;;;;;24.16;57.84;99324.44;7318775;19;129535;-42
2023/06/18 05:21:52;;;;;;;21.77;1.67;;;;;;;24.16;58.50;99322.59;7318329;19;129037;-37
2023/06/18 05:24:18;;;;;;;33.53;2.30;;;;;;;24.12;58.21;99323.94;7317042;19;128858;-35
2023/06/18 05:26:43;;;;;;;39.43;2.60;;;;;;;24.13;58.21;99320.31;7315620;19;129472;-36
2023/06/18 05:29:08;;;;;;;26.30;1.90;;;;;;;24.13;58.09;99320.31;7316877;19;129538;-35
2023/06/18 05:31:34;;;;;;;30.83;2.03;;;;;;;24.09;57.71;99308.50;7318241;19;128969;-39
2023/06/18 05:33:59;;;;;;;44.42;3.03;;;;;;;24.13;58.38;99325.56;7317282;19;129035;-32
2023/06/18 05:36:25;;;;;;;37.60;2.60;;;;;;;24.15;57.84;99334.09;7317135;19;131254;-39
2023/06/18 05:38:52;;;;;;;35.60;2.47;;;;;;;24.14;58.06;99327.22;7317026;19;129395;-45
2023/06/18 05:41:18;;;;;;;26.05;1.88;;;;;;;24.13;58.16;99333.44;7317406;19;128975;-37
2023/06/18 05:43:43;;;;;;;21.83;1.87;;;;;;;24.16;58.06;99333.13;7317937;19;128905;-31
2023/06/18 05:46:09;;;;;;;24.57;1.87;;;;;;;24.17;58.59;99332.16;7314351;19;129735;-37
2023/06/18 05:48:34;;;;;;;30.37;2.37;;;;;;;24.15;58.33;99333.28;7318123;19;129402;-40
2023/06/18 05:51:00;;;;;;;7.70;0.93;;;;;;;24.14;57.86;99332.47;7315389;19;129613;-38
2023/06/18 05:53:26;;;;;;;29.43;2.20;;;;;;;24.15;57.95;99334.09;7317194;19;129104;-37
2023/06/18 05:55:51;;;;;;;40.03;2.63;;;;;;;24.15;57.93;99333.28;7316001;19;129459;-35
2023/06/18 05:58:17;;;;;;;25.07;2.00;;;;;;;24.14;57.99;99342.16;7317824;19;129324;-36
2023/06/18 06:00:42;;;;;;;18.57;1.60;;;;;;;24.06;57.73;99318.50;7315175;19;128922;-39
2023/06/18 06:03:08;;;;;;;38.93;2.43;;;;;;;24.14;57.86;99343.00;7317726;19;129068;-36
2023/06/18 06:05:35;;;;;;;36.03;2.40;;;;;;;24.13;58.30;99346.56;7316028;19;129477;-36
2023/06/18 06:08:00;;;;;;;24.43;1.73;;;;;;;24.17;57.82;99347.91;7317441;19;129435;-35
2023/06/18 06:10:26;;;;;;;29.80;2.55;;;;;;;24.16;57.59;99346.25;7314636;19;128844;-38
2023/06/18 06:12:53;;;;;;;33.10;2.27;;;;;;;24.15;58.02;99342.00;7317794;19;129392;-36
2023/06/18 06:15:18;;;;;;;86.80;5.38;;;;;;;24.13;58.20;99343.16;7316287;19;129974;-40
2023/06/18 06:17:44;;;;;;;18.33;1.53;;;;;;;24.03;58.40;99329.34;7315847;19;130029;-37
2023/06/18 06:20:10;;;;;;;30.27;2.25;;;;;;;24.14;57.82;99343.00;7316684;19;128984;-38
2023/06/18 06:22:35;;;;;;;24.83;1.97;;;;;;;24.15;58.43;99344.63;7316521;19;129444;-34
2023/06/18 06:25:01;;;;;;;38.23;2.67;;;;;;;24.14;57.86;99353.50;7316588;19;129509;-37
2023/06/18 06:27:26;;;;;;;35.43;2.40;;;;;;;24.13;58.28;99354.47;7311537;19;129178;-40
2023/06/18 06:29:51;;;;;;;26.17;2.00;;;;;;;24.13;58.38;99349.19;7316350;19;128662;-38
2023/06/18 06:32:17;;;;;;;41.97;2.60;;;;;;;24.14;58.21;99348.25;7317200;19;129382;-39
2023/06/18 06:34:43;;;;;;;28.03;2.10;;;;;;;24.12;58.12;99337.06;7317455;19;128970;-40
2023/06/18 06:37:08;;;;;;;33.07;2.27;;;;;;;24.13;58.19;99343.94;7315279;19;129532;-39
2023/06/18 06:39:34;;;;;;;19.40;1.73;;;;;;;24.14;57.75;99343.00;7316442;19;129015;-36
2023/06/18 06:41:59;;;;;;;39.33;2.60;;;;;;;24.04;58.19;99326.56;7316512;19;129425;-37
2023/06/18 06:44:25;;;;;;;23.27;1.70;;;;;;;24.15;58.54;99344.63;7316806;19;129586;-40
2023/06/18 06:46:50;;;;;;;23.23;1.97;;;;;;;24.15;58.41;99339.38;7313859;19;129410;-37
2023/06/18 06:49:15;;;;;;;20.05;1.63;;;;;;;24.14;58.14;99343.00;7316468;19;129043;-35
2023/06/18 06:51:41;;;;;;;41.70;2.87;;;;;;;24.09;58.42;99332.16;7315815;19;129226;-37
2023/06/18 06:54:06;;;;;;;33.00;2.43;;;;;;;24.16;58.11;99341.00;7316601;19;129312;-37
2023/06/18 06:56:32;;;;;;;29.00;1.95;;;;;;;24.12;58.04;99339.69;7314927;19;129434;-35
2023/06/18 06:58:57;;;;;;;35.67;2.53;;;;;;;24.13;58.38;99341.31;7315740;19;128932;-41
2023/06/18 07:01:23;;;;;;;37.00;2.50;;;;;;;24.14;58.00;99348.25;7316535;19;129291;-34
2023/06/18 07:03:48;;;;;;;21.50;1.63;;;;;;;24.14;58.11;99348.25;7317038;19;129491;-36
2023/06/18 07:06:14;;;;;;;28.40;1.90;;;;;;;24.14;58.44;99353.50;7313752;19;130963;-35
2023/06/18 07:08:39;;;;;;;34.53;2.50;;;;;;;24.15;58.39;99351.66;7316218;19;129948;-35
2023/06/18 07:11:04;;;;;;;28.90;2.03;;;;;;;24.14;58.08;99352.66;7313854;19;129089;-41
2023/06/18 07:13:30;;;;;;;26.93;2.10;;;;;;;24.14;57.88;99348.25;7315760;19;130082;-38
2023/06/18 07:15:55;;;;;;;23.43;1.73;;;;;;;24.13;58.08;99346.56;7315803;19;129340;-35
2023/06/18 07:18:21;;;;;;;41.57;2.73;;;;;;;24.13;58.39;99351.03;7316285;19;128895;-34
2023/06/18 07:20:46;;;;;;;25.80;1.77;;;;;;;24.12;58.18;99339.69;7315335;19;129211;-36
2023/06/18 07:23:12;;;;;;;30.47;2.13;;;;;;;24.13;58.24;99340.53;7315080;19;129498;-39
2023/06/18 07:25:37;;;;;;;9.93;1.00;;;;;;;24.14;58.50;99343.00;7314816;19;129212;-37
2023/06/18 07:28:03;;;;;;;64.60;4.00;;;;;;;24.14;57.81;99340.38;7315395;19;128845;-35
2023/06/18 07:30:28;;;;;;;58.70;4.07;;;;;;;24.02;58.00;99323.25;7315526;19;129138;-38
2023/06/18 07:32:53;;;;;;;8.70;1.00;;;;;;;24.11;58.55;99343.28;7314377;19;129465;-33
2023/06/18 07:35:19;;;;;;;32.70;2.30;;;;;;;24.15;57.70;99342.00;7314708;19;130211;-38
2023/06/18 07:37:44;;;;;;;39.33;2.63;;;;;;;24.12;57.88;99350.19;7311778;19;129495;-34
2023/06/18 07:40:10;;;;;;;24.23;1.80;;;;;;;24.15;58.33;99349.88;7314875;19;129402;-35
2023/06/18 07:42:36;;;;;;;23.05;1.80;;;;;;;24.15;58.13;99344.63;7313323;19;129278;-34
2023/06/18 07:45:01;;;;;;;33.50;2.27;;;;;;;24.11;57.84;99348.53;7314114;19;130818;-33
2023/06/18 07:47:27;;;;;;;38.53;2.67;;;;;;;24.13;57.94;99351.84;7312173;19;129319;-38
2023/06/18 07:49:52;;;;;;;4.53;0.83;;;;;;;24.13;58.49;99351.84;7315558;19;129114;-34
2023/06/18 07:52:17;;;;;;;27.60;1.97;;;;;;;24.14;57.73;99347.41;7313509;19;129510;-39
2023/06/18 07:54:43;;;;;;;45.17;2.93;;;;;;;24.13;58.50;99349.19;7314386;19;129518;-39
2023/06/18 07:57:08;;;;;;;17.35;1.45;;;;;;;24.16;58.16;99348.88;7312219;19;128724;-37
2023/06/18 07:59:33;;;;;;;27.50;1.93;;;;;;;24.14;58.15;99339.53;7314827;19;128984;-38
2023/06/18 08:01:59;;;;;;;70.53;4.40;;;;;;;24.11;58.52;99339.84;7312776;19;129540;-34
2023/06/18 08:04:24;;;;;;;32.77;2.17;;;;;;;24.13;58.49;99345.78;7314415;19;129193;-33
2023/06/18 08:06:50;;;;;;;30.25;2.10;;;;;;;24.14;58.50;99347.41;7311814;19;129340;-36
2023/06/18 08:09:17;;;;;;;23.03;1.53;;;;;;;24.10;57.85;99354.78;7313043;19;128879;-41
2023/06/18 08:11:43;;;;;;;22.20;1.67;;;;;;;24.12;57.76;99349.38;7312983;19;129963;-38
2023/06/18 08:14:08;;;;;;;37.20;2.43;;;;;;;24.11;57.89;99345.91;7312039;19;129860;-38
2023/06/18 08:16:34;;;;;;;26.30;1.77;;;;;;;24.13;58.48;99346.56;7314288;19;129270;-36
2023/06/18 08:18:59;;;;;;;12.20;1.00;;;;;;;24.12;58.64;99346.75;7312399;19;129495;-36
2023/06/18 08:21:25;;;;;;;25.00;1.93;;;;;;;24.11;57.89;99343.28;7312646;19;129533;-37
2023/06/18 08:23:50;;;;;;;52.17;3.35;;;;;;;24.05;57.90;99345.75;7312478;19;129410;-42
2023/06/18 08:26:16;;;;;;;19.38;1.58;;;;;;;24.11;57.99;99360.88;7313296;19;129210;-37
2023/06/18 08:28:41;;;;;;;25.20;1.98;;;;;;;24.14;58.18;99353.50;7313677;19;129404;-32
2023/06/18 08:31:07;;;;;;;38.77;2.67;;;;;;;24.13;58.27;99338.69;7312403;19;129492;-37
2023/06/18 08:33:32;;;;;;;35.33;2.30;;;;;;;24.14;58.42;99343.00;7313911;19;129152;-37
2023/06/18 08:35:57;;;;;;;22.47;1.70;;;;;;;24.11;58.36;99347.75;7313286;19;130332;-37
2023/06/18 08:38:23;;;;;;;12.10;1.10;;;;;;;24.11;57.88;99343.28;7312485;19;129427;-40
2023/06/18 08:40:55;;;;;;;33.33;2.47;;;;;;;24.12;58.24;99349.38;7312641;19;129681;-33
2023/06/18 08:43:26;;;;;;;37.33;2.25;;;;;;;24.10;57.97;99341.66;7313266;19;129165;-32
2023/06/18 08:45:53;;;;;;;27.27;1.90;;;;;;;24.13;58.58;99340.53;7313300;19;129419;-37
2023/06/18 08:48:26;;;;;;;;;;;;;;;24.20;58.55;99339.69;7313764;19;128746;-36
2023/06/18 08:50:57;;;;;;;23.55;1.80;;;;;;;24.11;58.12;99338.03;7309959;19;129164;-35
2023/06/18 08:53:35;;;;;;;33.22;2.28;;;;;;;24.06;58.45;99335.09;7312413;19;129430;-32
2023/06/18 08:56:00;;;;;;;;;;;;;;;24.06;58.75;99319.34;7312828;19;129359;-37
2023/06/18 08:58:27;;;;;;;24.45;1.83;;;;;;;24.11;57.94;99335.41;7312915;19;129048;-38
2023/06/18 09:00:54;;;;;;;22.70;1.65;;;;;;;24.10;58.68;99340.81;7312369;19;129253;-35
2023/06/18 09:03:20;;;;;;;23.25;1.73;;;;;;;24.09;58.23;99339.19;7311604;19;131001;-33
2023/06/18 09:05:45;;;;;;;42.50;2.55;;;;;;;24.10;57.94;99339.03;7310930;19;129632;-36
2023/06/18 09:08:12;;;;;;;32.03;2.27;;;;;;;24.11;57.86;99335.41;7311977;19;129160;-38
2023/06/18 09:10:37;;;;;;;36.63;2.55;;;;;;;24.07;57.81;99326.22;7311857;19;129400;-35
2023/06/18 09:13:03;;;;;;;24.40;1.80;;;;;;;24.12;58.56;99338.88;7311987;19;128909;-40
2023/06/18 09:15:28;;;;;;;25.57;2.07;;;;;;;24.12;57.91;99329.19;7312032;19;128944;-37
2023/06/18 09:17:54;;;;;;;22.93;1.73;;;;;;;24.09;58.33;99332.16;7309617;19;129101;-39
2023/06/18 09:20:20;;;;;;;31.83;2.17;;;;;;;24.11;58.59;99338.03;7310723;19;129115;-37
2023/06/18 09:22:47;;;;;;;29.35;2.15;;;;;;;24.10;58.55;99336.41;7310978;19;129675;-36
2023/06/18 09:25:20;;;;;;;39.88;2.63;;;;;;;24.09;58.53;99332.16;7310960;19;129264;-40
2023/06/18 09:27:46;;;;;;;21.50;1.70;;;;;;;24.09;57.44;99319.00;7310542;19;129566;-37
2023/06/18 09:30:24;;;;;;;25.23;1.80;;;;;;;24.12;58.09;99323.94;7312786;19;130791;-34
2023/06/18 09:32:50;;;;;;;22.92;1.77;;;;;;;24.07;57.83;99326.22;7311321;19;129216;-32
2023/06/18 09:35:19;;;;;;;34.53;2.33;;;;;;;24.12;58.00;99326.56;7310459;19;129015;-39
2023/06/18 09:37:45;;;;;;;24.13;1.90;;;;;;;24.08;57.95;99319.97;7309457;19;129018;-34
2023/06/18 09:40:21;;;;;;;22.67;1.60;;;;;;;24.02;58.27;99310.13;7311888;19;129478;-40
2023/06/18 09:42:51;;;;;;;18.67;1.48;;;;;;;24.09;58.20;99326.88;7311261;19;129690;-45
2023/06/18 09:45:18;;;;;;;27.42;1.90;;;;;;;24.11;58.02;99330.16;7311170;19;129269;-41
2023/06/18 09:47:48;;;;;;;45.28;2.95;;;;;;;24.09;58.67;99326.88;7308995;19;129325;-38
2023/06/18 09:50:13;;;;;;;32.05;2.15;;;;;;;24.09;57.53;99319.00;7311110;19;129282;-43
2023/06/18 09:52:44;;;;;;;4.53;0.63;;;;;;;24.10;58.03;99320.63;7311242;19;129260;-43
2023/06/18 09:55:35;;;;;;;34.95;2.35;;;;;;;24.10;58.54;99312.75;7310906;19;129970;-40
2023/06/18 09:58:01;;;;;;;29.88;2.30;;;;;;;24.10;58.49;99307.50;7310015;19;129368;-41
2023/06/18 10:00:27;;;;;;;54.97;3.63;;;;;;;24.08;57.72;99306.84;7310020;19;130179;-44
2023/06/18 10:02:53;;;;;;;35.60;2.40;;;;;;;24.10;58.27;99304.88;7315037;19;129357;-37
2023/06/18 10:05:18;;;;;;;24.30;1.73;;;;;;;24.09;58.09;99313.75;7317666;19;128891;-43
2023/06/18 10:07:47;;;;;;;26.43;1.90;;;;;;;24.10;58.43;99302.25;7315431;19;128799;-41
2023/06/18 10:10:14;;;;;;;51.90;3.10;;;;;;;24.09;58.32;99303.25;7317201;19;129535;-37
2023/06/18 10:12:43;;;;;;;26.25;1.98;;;;;;;24.08;58.78;99306.03;7317213;19;130352;-44
2023/06/18 10:15:12;;;;;;;23.83;1.90;;;;;;;24.01;58.72;99295.38;7317967;19;128921;-43
2023/06/18 10:17:46;;;;;;;15.80;1.33;;;;;;;24.06;58.77;99316.72;7314451;19;129257;-44
2023/06/18 10:20:13;;;;;;;18.90;1.48;;;;;;;24.06;58.35;99308.00;7317001;19;129833;-39
2023/06/18 10:22:54;;;;;;;33.13;2.28;;;;;;;24.08;58.31;99312.09;7316273;19;129366;-41
2023/06/18 10:25:20;;;;;;;38.30;2.58;;;;;;;24.11;58.25;99306.50;7316683;19;128840;-39
2023/06/18 10:27:46;;;;;;;24.58;1.80;;;;;;;24.09;58.26;99308.50;7315815;19;129095;-41
2023/06/18 10:30:12;;;;;;;23.47;1.77;;;;;;;24.10;58.26;99311.94;7316430;19;130047;-39
2023/06/18 10:32:41;;;;;;;25.77;1.77;;;;;;;24.08;58.74;99312.09;7314523;19;129120;-40
2023/06/18 10:35:08;;;;;;;36.35;2.28;;;;;;;23.99;58.05;99289.44;7317499;19;129612;-41
2023/06/18 10:37:36;;;;;;;27.58;2.00;;;;;;;24.07;58.61;99305.22;7315592;19;129503;-40
2023/06/18 10:40:03;;;;;;;38.72;2.58;;;;;;;24.06;57.80;99308.00;7316836;19;130335;-43
2023/06/18 10:42:32;;;;;;;20.95;1.52;;;;;;;24.06;58.73;99308.00;7315607;19;131216;-38
2023/06/18 10:44:59;;;;;;;24.90;1.73;;;;;;;24.05;58.69;99307.19;7316027;19;129169;-42
2023/06/18 10:47:26;;;;;;;26.23;1.85;;;;;;;24.09;58.36;99298.00;7313879;19;130068;-43
2023/06/18 10:50:00;;;;;;;;;;;;;;;24.13;58.01;99294.03;7316568;19;130031;-40
2023/06/18 10:52:26;;;;;;;12.85;1.13;;;;;;;24.10;58.53;99298.78;7316469;19;129707;-39
2023/06/18 10:54:54;;;;;;;49.42;3.08;;;;;;;24.05;58.40;99291.41;7315532;19;129088;-38
2023/06/18 10:57:25;;;;;;;25.10;1.65;;;;;;;24.06;58.26;99292.25;7311768;19;129203;-41
2023/06/18 10:59:51;;;;;;;32.72;2.15;;;;;;;24.05;58.13;99294.03;7312968;19;130062;-35
2023/06/18 11:02:31;;;;;;;27.87;2.00;;;;;;;24.04;58.16;99292.41;7311180;19;129686;-41
2023/06/18 11:04:57;;;;;;;16.05;1.25;;;;;;;24.04;57.79;99294.22;7313226;19;131858;-42
2023/06/18 11:07:23;;;;;;;35.40;2.40;;;;;;;24.08;58.68;99285.84;7310865;19;128916;-41
2023/06/18 11:09:57;;;;;;;32.78;2.17;;;;;;;24.06;58.14;99287.81;7313145;19;129471;-41
2023/06/18 11:12:25;;;;;;;22.63;1.70;;;;;;;24.07;58.53;99289.47;7313026;19;129733;-40
2023/06/18 11:15:15;;;;;;;20.45;1.48;;;;;;;24.06;58.93;99279.94;7312130;19;129504;-39
2023/06/18 11:17:43;;;;;;;27.67;1.90;;;;;;;24.04;58.66;99275.81;7311109;19;129560;-39